createdAt,value
2022-08-25T00:01:51.509Z,99866.31
2022-08-25T00:04:56.344Z,99875.63
2022-08-25T00:08:02.690Z,99862.66
2022-08-25T00:11:13.023Z,99866.91
2022-08-25T00:14:21.483Z,99867.03
2022-08-25T00:17:26.415Z,99860.66
2022-08-25T00:20:31.250Z,99857.47
2022-08-25T00:23:36.453Z,99848.31
2022-08-25T00:26:43.748Z,99839.09
2022-08-25T00:29:48.400Z,99856.34
2022-08-25T00:32:57.194Z,99846.75
2022-08-25T00:36:02.389Z,99838.38
2022-08-25T00:39:09.088Z,99846.44
2022-08-25T00:42:16.138Z,99840.59
2022-08-25T00:45:21.419Z,99832.63
2022-08-25T00:48:26.008Z,99813.25
2022-08-25T00:51:48.636Z,99826.41
2022-08-25T00:55:07.917Z,99829.63
2022-08-25T00:58:19.958Z,99827.47
2022-08-25T01:01:24.954Z,99827.53
2022-08-25T01:04:29.849Z,99830.31
2022-08-25T01:07:34.453Z,99826.31
2022-08-25T01:10:42.262Z,99829.44
2022-08-25T01:13:52.559Z,99829.03
2022-08-25T01:16:58.964Z,99832.00
2022-08-25T01:20:04.049Z,99825.34
2022-08-25T01:23:08.535Z,99836.47
2022-08-25T01:26:30.566Z,99821.97
2022-08-25T01:29:36.926Z,99827.00
2022-08-25T01:32:42.054Z,99816.72
2022-08-25T01:35:47.020Z,99820.69
2022-08-25T01:38:52.661Z,99814.63
2022-08-25T01:42:10.069Z,99815.16
2022-08-25T01:45:15.148Z,99806.66
2022-08-25T01:48:20.417Z,99807.13
2022-08-25T01:51:31.423Z,99804.09
2022-08-25T01:54:35.875Z,99795.97
2022-08-25T01:57:40.757Z,99778.38
2022-08-25T02:00:55.090Z,99780.88
2022-08-25T02:04:00.445Z,99781.72
2022-08-25T02:07:08.783Z,99784.28
2022-08-25T02:10:14.751Z,99786.03
2022-08-25T02:13:21.116Z,99782.75
2022-08-25T02:16:35.619Z,99781.38
2022-08-25T02:19:40.438Z,99774.72
2022-08-25T02:22:56.658Z,99758.69
2022-08-25T02:26:01.804Z,99754.91
2022-08-25T02:29:08.347Z,99761.56
2022-08-25T02:32:13.005Z,99759.63
2022-08-25T02:35:18.095Z,99755.41
2022-08-25T02:38:22.621Z,99747.34
2022-08-25T02:41:31.232Z,99743.97
2022-08-25T02:44:36.610Z,99729.91
2022-08-25T02:47:42.549Z,99733.59
2022-08-25T02:50:53.360Z,99736.16
2022-08-25T02:54:00.132Z,99732.25
2022-08-25T02:57:05.200Z,99724.38
2022-08-25T03:00:10.889Z,99728.06
2022-08-25T03:03:18.012Z,99722.31
2022-08-25T03:06:25.083Z,99708.88
2022-08-25T03:09:30.119Z,99690.72
2022-08-25T03:12:38.875Z,99695.88
2022-08-25T03:15:43.760Z,99692.84
2022-08-25T03:18:49.182Z,99667.06
2022-08-25T03:21:57.133Z,99674.75
2022-08-25T03:25:24.190Z,99682.97
2022-08-25T03:28:30.141Z,99677.03
2022-08-25T03:31:35.913Z,99665.59
2022-08-25T03:34:40.722Z,99665.75
2022-08-25T07:47:42.115Z,99415.63
2022-08-25T07:50:47.874Z,99418.63
2022-08-25T07:53:52.661Z,99413.81
2022-08-25T07:56:57.509Z,99416.09
2022-08-25T08:00:02.088Z,99431.19
2022-08-25T08:03:29.388Z,99434.00
2022-08-25T08:06:42.057Z,99433.84
2022-08-25T08:09:56.064Z,99447.22
2022-08-25T08:13:12.703Z,99448.94
2022-08-25T08:16:24.475Z,99447.47
2022-08-25T08:19:29.525Z,99460.97
2022-08-25T08:22:34.317Z,99473.19
2022-08-25T08:25:38.713Z,99522.28
2022-08-25T08:28:43.456Z,99535.19
2022-08-25T08:31:48.651Z,99558.25
2022-08-25T08:34:54.148Z,99588.38
2022-08-25T08:37:59.851Z,99597.06
2022-08-25T08:45:28.675Z,99591.31
2022-08-25T08:49:00.000Z,99589.91
2022-08-25T08:52:07.028Z,99591.34
2022-08-25T08:55:29.491Z,99573.72
2022-08-25T08:58:53.243Z,99551.59
2022-08-25T09:02:01.984Z,99554.06
2022-08-25T09:05:15.829Z,99543.84
2022-08-25T09:08:21.808Z,99542.13
2022-08-25T09:11:42.520Z,99540.88
2022-08-25T09:14:53.825Z,99538.72
2022-08-25T09:17:58.924Z,99548.19
2022-08-25T09:21:14.944Z,99535.00
2022-08-25T09:24:37.043Z,99554.53
2022-08-25T09:28:15.666Z,99566.34
2022-08-25T09:31:29.867Z,99565.28
2022-08-25T09:34:36.214Z,99571.28
2022-08-25T09:37:41.009Z,99561.28
2022-08-25T09:40:49.442Z,99581.78
2022-08-25T09:43:56.239Z,99564.50
2022-08-25T09:47:05.997Z,99559.75
2022-08-25T09:50:20.868Z,99548.16
2022-08-25T09:53:26.117Z,99551.28
2022-08-25T09:56:33.380Z,99549.25
2022-08-25T09:59:39.136Z,99543.44
2022-08-25T10:02:45.909Z,99534.47
2022-08-25T10:06:14.232Z,99541.84
2022-08-25T10:09:30.243Z,99548.03
2022-08-25T10:12:43.219Z,99534.69
2022-08-25T10:15:49.341Z,99537.88
2022-08-25T10:19:14.902Z,99542.72
2022-08-25T10:22:33.417Z,99546.84
2022-08-25T10:25:59.127Z,99535.47
2022-08-25T10:29:16.930Z,99575.97
2022-08-25T10:32:27.405Z,99584.22
2022-08-25T10:35:40.645Z,99544.66
2022-08-25T10:39:01.419Z,99552.03
2022-08-25T10:42:32.822Z,99554.38
2022-08-25T10:45:49.138Z,99541.03
2022-08-25T10:49:20.070Z,99569.69
2022-08-25T10:53:11.777Z,99577.31
2022-08-25T10:56:30.468Z,99578.69
2022-08-25T10:59:59.799Z,99568.06
2022-08-25T11:03:35.347Z,99552.63
2022-08-25T11:06:58.480Z,99562.25
2022-08-25T11:10:07.669Z,99528.25
2022-08-25T11:13:38.667Z,99533.09
2022-08-25T11:16:55.185Z,99528.16
2022-08-25T11:20:06.682Z,99535.44
2022-08-25T11:23:21.107Z,99538.88
2022-08-25T11:26:37.175Z,99506.16
2022-08-25T11:29:47.119Z,99493.63
2022-08-25T11:32:54.400Z,99523.78
2022-08-25T11:36:12.548Z,99543.66
2022-08-25T11:44:36.094Z,99541.84
2022-08-25T11:48:02.356Z,99549.44
2022-08-25T11:51:14.217Z,99538.47
2022-08-25T11:54:44.065Z,99534.63
2022-08-25T11:57:53.749Z,99563.59
2022-08-25T12:01:00.741Z,99561.78
2022-08-25T12:04:14.923Z,99545.19
2022-08-25T12:07:26.587Z,99522.19
2022-08-25T12:11:09.963Z,99493.31
2022-08-25T12:14:21.345Z,99495.59
2022-08-25T12:17:38.363Z,99512.69
2022-08-25T12:20:57.957Z,99524.72
2022-08-25T12:24:09.601Z,99521.41
2022-08-25T12:27:34.662Z,99518.28
2022-08-25T12:30:50.853Z,99494.84
2022-08-25T12:34:27.688Z,99479.38
2022-08-25T12:37:32.523Z,99497.63
2022-08-25T12:40:39.516Z,99506.22
2022-08-25T12:43:46.601Z,99488.44
2022-08-25T12:47:08.832Z,99498.72
2022-08-25T12:50:40.235Z,99517.81
2022-08-25T12:53:54.220Z,99524.06
2022-08-25T12:57:03.890Z,99499.34
2022-08-25T13:00:22.421Z,99509.38
2022-08-25T13:04:04.148Z,99490.59
2022-08-25T13:07:35.276Z,99483.16
2022-08-25T13:10:39.230Z,99481.50
2022-08-25T13:14:06.804Z,99465.75
2022-08-25T13:17:11.959Z,99478.53
2022-08-25T13:20:24.683Z,99493.09
2022-08-25T13:23:31.364Z,99493.84
2022-08-25T13:26:48.360Z,99483.69
2022-08-25T13:29:56.854Z,99514.25
2022-08-25T13:33:16.562Z,99526.69
2022-08-25T13:36:41.313Z,99528.28
2022-08-25T13:39:56.474Z,99508.97
2022-08-25T13:43:08.678Z,99493.47
2022-08-25T13:46:13.085Z,99498.53
2022-08-25T13:49:28.764Z,99489.25
2022-08-25T13:52:33.846Z,99484.19
2022-08-25T13:55:50.969Z,99491.47
2022-08-25T13:58:58.303Z,99479.31
2022-08-25T14:02:03.266Z,99484.19
2022-08-25T14:05:10.698Z,99466.53
2022-08-25T14:08:34.373Z,99468.88
2022-08-25T14:11:50.877Z,99458.25
2022-08-25T14:15:02.563Z,99421.25
2022-08-25T14:18:32.533Z,99479.22
2022-08-25T14:21:42.033Z,99491.66
2022-08-25T14:24:46.664Z,99486.78
2022-08-25T14:28:08.123Z,99488.78
2022-08-25T14:31:40.200Z,99484.16
2022-08-25T14:34:45.558Z,99492.38
2022-08-25T14:37:50.234Z,99500.28
2022-08-25T14:40:55.482Z,99501.72
2022-08-25T14:44:06.120Z,99498.03
2022-08-25T14:47:11.061Z,99504.84
2022-08-25T14:50:16.410Z,99498.66
2022-08-25T14:53:25.145Z,99487.38
2022-08-25T14:56:30.973Z,99490.00
2022-08-25T14:59:36.231Z,99483.28
2022-08-25T15:02:50.524Z,99483.06
2022-08-25T15:05:57.724Z,99481.38
2022-08-25T15:09:14.736Z,99466.88
2022-08-25T15:12:46.019Z,99474.81
2022-08-25T15:15:52.983Z,99477.94
2022-08-25T15:18:57.911Z,99462.44
2022-08-25T15:22:02.390Z,99465.56
2022-08-25T15:25:07.847Z,99454.97
2022-08-25T15:28:17.315Z,99466.69
2022-08-25T15:31:23.819Z,99453.47
2022-08-25T15:34:29.055Z,99446.75
2022-08-25T15:37:34.032Z,99457.44
2022-08-25T15:40:40.273Z,99441.94
2022-08-25T15:43:44.794Z,99442.66
2022-08-25T15:46:50.029Z,99448.00
2022-08-25T15:50:06.387Z,99437.31
2022-08-25T15:53:11.751Z,99443.13
2022-08-25T15:56:26.767Z,99444.16
2022-08-25T15:59:32.225Z,99431.63
2022-08-25T16:02:38.407Z,99431.88
2022-08-25T16:05:48.242Z,99425.69
2022-08-25T16:08:53.780Z,99422.13
2022-08-25T16:12:02.677Z,99409.09
2022-08-25T16:15:12.020Z,99402.38
2022-08-25T16:18:17.698Z,99405.19
2022-08-25T16:21:29.111Z,99412.63
2022-08-25T16:24:38.539Z,99422.34
2022-08-25T16:27:44.798Z,99422.03
2022-08-25T16:30:52.750Z,99422.81
2022-08-25T16:33:58.367Z,99408.69
2022-08-25T16:37:03.733Z,99415.41
2022-08-25T16:40:11.179Z,99411.50
2022-08-25T16:43:16.719Z,99390.50
2022-08-25T16:46:23.960Z,99390.63
2022-08-25T16:49:28.704Z,99377.69
2022-08-25T16:52:52.880Z,99401.47
2022-08-25T16:56:06.644Z,99421.09
2022-08-25T16:59:14.453Z,99436.22
2022-08-25T17:02:19.062Z,99447.38
2022-08-25T17:05:30.748Z,99408.25
2022-08-25T17:08:36.375Z,99452.03
2022-08-25T17:11:46.165Z,99463.44
2022-08-25T17:14:50.684Z,99447.31
2022-08-25T17:17:55.368Z,99461.50
2022-08-25T17:21:05.792Z,99465.09
2022-08-25T17:24:11.441Z,99451.63
2022-08-25T17:27:16.217Z,99454.84
2022-08-25T17:30:21.863Z,99428.69
2022-08-25T17:33:28.005Z,99449.41
2022-08-25T17:36:32.576Z,99413.91
2022-08-25T17:39:37.410Z,99439.97
2022-08-25T17:42:43.447Z,99429.38
2022-08-25T17:45:48.719Z,99426.31
2022-08-25T17:48:54.881Z,99435.31
2022-08-25T17:52:00.179Z,99416.22
2022-08-25T17:55:05.079Z,99418.91
2022-08-25T17:58:17.543Z,99428.44
2022-08-25T18:01:33.659Z,99438.41
2022-08-25T18:04:39.585Z,99432.28
2022-08-25T18:07:45.113Z,99440.31
2022-08-25T18:10:50.851Z,99433.66
2022-08-25T18:13:56.362Z,99442.25
2022-08-25T18:17:02.448Z,99446.84
2022-08-25T18:20:10.283Z,99449.91
2022-08-25T18:23:15.467Z,99433.94
2022-08-25T18:26:24.687Z,99443.53
2022-08-25T18:29:30.358Z,99420.97
2022-08-25T18:32:35.904Z,99445.00
2022-08-25T18:35:40.705Z,99447.44
2022-08-25T18:39:03.959Z,99458.16
2022-08-25T18:42:09.371Z,99456.91
2022-08-25T18:45:13.915Z,99456.03
2022-08-25T18:48:20.939Z,99454.75
2022-08-25T18:51:25.706Z,99458.38
2022-08-25T18:54:30.276Z,99474.72
2022-08-25T18:57:37.750Z,99469.66
2022-08-25T19:00:45.634Z,99482.81
2022-08-25T19:03:51.519Z,99476.16
2022-08-25T19:06:56.288Z,99468.78
2022-08-25T19:10:00.753Z,99481.69
2022-08-25T19:13:08.154Z,99480.63
2022-08-25T19:16:17.808Z,99471.94
2022-08-25T19:19:25.542Z,99477.69
2022-08-25T19:22:41.158Z,99473.09
2022-08-25T19:25:46.812Z,99473.28
2022-08-25T19:28:53.522Z,99471.59
2022-08-25T19:31:58.483Z,99464.13
2022-08-25T19:35:07.134Z,99468.59
2022-08-25T19:38:24.480Z,99472.53
2022-08-25T19:41:39.110Z,99476.06
2022-08-25T19:44:45.147Z,99467.38
2022-08-25T19:47:50.347Z,99465.66
2022-08-25T19:50:56.211Z,99478.63
2022-08-25T19:54:02.936Z,99482.97
2022-08-25T19:57:11.091Z,99491.72
2022-08-25T20:00:20.681Z,99499.56
2022-08-25T20:03:25.214Z,99487.84
2022-08-25T20:06:32.023Z,99486.31
2022-08-25T20:09:40.733Z,99489.44
2022-08-25T20:12:45.795Z,99499.56
2022-08-25T20:15:50.492Z,99487.00
2022-08-25T20:18:55.705Z,99491.31
2022-08-25T20:22:00.357Z,99498.56
2022-08-25T20:25:13.403Z,99511.94
2022-08-25T20:28:18.993Z,99501.38
2022-08-25T20:31:24.369Z,99510.66
2022-08-25T20:34:30.094Z,99503.78
2022-08-25T20:37:37.482Z,99494.66
2022-08-25T20:40:43.778Z,99514.50
2022-08-25T20:43:48.094Z,99527.03
2022-08-25T20:46:54.674Z,99529.22
2022-08-25T20:50:05.874Z,99517.88
2022-08-25T20:53:13.601Z,99520.78
2022-08-25T20:56:19.665Z,99524.63
2022-08-25T20:59:26.156Z,99530.31
2022-08-25T21:02:31.428Z,99540.13
2022-08-25T21:05:36.730Z,99532.88
2022-08-25T21:08:46.720Z,99534.25
2022-08-25T21:11:54.503Z,99542.41
2022-08-25T21:14:59.371Z,99544.78
2022-08-25T21:18:04.932Z,99531.81
2022-08-25T21:21:16.813Z,99548.91
2022-08-25T21:24:22.376Z,99549.22
2022-08-25T21:27:27.881Z,99556.59
2022-08-25T21:30:33.106Z,99560.09
2022-08-25T21:33:37.690Z,99565.94
2022-08-25T21:36:42.981Z,99553.06
2022-08-25T21:39:47.784Z,99544.44
2022-08-25T21:42:53.676Z,99563.94
2022-08-25T21:45:58.300Z,99559.44
2022-08-25T21:49:05.863Z,99587.78
2022-08-25T21:52:10.893Z,99583.25
2022-08-25T21:55:16.396Z,99571.50
2022-08-25T21:58:21.382Z,99574.41
2022-08-25T22:01:26.440Z,99567.16
2022-08-25T22:04:32.900Z,99575.75
2022-08-25T22:07:41.674Z,99573.84
2022-08-25T22:10:47.002Z,99581.59
2022-08-25T22:13:54.124Z,99564.75
2022-08-25T22:16:58.653Z,99579.69
2022-08-25T22:20:05.639Z,99585.38
2022-08-25T22:23:10.692Z,99579.91
2022-08-25T22:26:27.507Z,99593.50
2022-08-25T22:29:33.939Z,99594.06
2022-08-25T22:32:39.086Z,99593.41
2022-08-25T22:35:43.240Z,99602.28
2022-08-25T22:38:48.697Z,99605.19
2022-08-25T22:41:56.545Z,99598.63
2022-08-25T22:45:02.010Z,99598.47
2022-08-25T22:48:08.063Z,99604.50
2022-08-25T22:51:19.515Z,99610.63
2022-08-25T22:54:25.273Z,99609.22
2022-08-25T22:57:30.027Z,99613.88
2022-08-25T23:00:35.615Z,99594.28
2022-08-25T23:03:44.239Z,99606.44
2022-08-25T23:06:49.798Z,99605.91
2022-08-25T23:09:54.515Z,99600.56
2022-08-25T23:12:58.872Z,99611.72
2022-08-25T23:16:03.702Z,99621.38
2022-08-25T23:19:13.842Z,99622.47
2022-08-25T23:22:19.279Z,99625.25
2022-08-25T23:25:24.001Z,99634.69
2022-08-25T23:28:28.637Z,99634.59
2022-08-25T23:31:33.902Z,99623.84
2022-08-25T23:34:40.655Z,99625.56
2022-08-25T23:37:45.343Z,99638.88
2022-08-25T23:40:49.975Z,99637.69
2022-08-25T23:43:55.353Z,99628.66
2022-08-25T23:47:00.363Z,99628.88
2022-08-25T23:50:05.380Z,99623.28
2022-08-25T23:53:10.537Z,99634.88
2022-08-25T23:56:16.090Z,99632.22
2022-08-25T23:59:24.193Z,99636.84
